Tulsa, Oklahoma
Current Conditions -  °F | °C
As of 3:53 PM on Sunday 23 Nov 2014 (Local Time) from KTUL Reporting Station
Light Rain Light Rain  
Wind Chill: 62°   Ceiling: 4600
Heat Index: 62°   Visibility: 10mi
Dew Point: 52°   Wind: 18mph
Humidity: 70%   Direction: 300°WNW
Pressure: 29.3"   Gusts: NA
Location:  36.15°N, 95.99°W
Report Text: KTUL 232153Z 30016KT 10SM -RA SCT033 BKN046 OVC060 17/11 A2930 RMK AO2 RAB18 SLP919 BINOVC P0000 T01670111
Loading
Personal Weather Stations






























Interactive Weather Map New forecast layout! Learn more

10-Day Weather Forecast

Advertisements
Track Severe Weather on mobile